Terminal Aerodrome Forecast
Issued by NWS

Home | Current Version | Previous Version | Text Only | Print | Product List | Glossary On
Versions: 1 2 3 4 5 6 7 8 9 10 11 12 13 14 15 16 17 18 19 20 21 22 23 24 25 26 27 28 29 30 31 32 33 34 35 36 37 38 39 40
000
FTUS43 KLOT 232300
TAFDPA
TAF
KDPA 232339Z 2400/2424 13010KT 3SM RA BR OVC006
     FM240200 15010KT 3SM RA BR OVC004
     FM240600 20008KT 1 1/2SM -RA BR OVC005
     FM241400 27015G22KT 3SM -RA BR SCT007 OVC015
     FM241700 27020G30KT 3SM -SN SCT007 OVC012
     FM242000 25024G32KT 4SM -SN SCT007 OVC015=

USA.gov is the U.S. government's official web portal to all federal, state and local government web resources and services.